sensor_id;sensor_type;location;lat;lon;timestamp;P1;durP1;ratioP1;P2;durP2;ratioP2
8086;SDS011;4086;54.412;9.980;2022-12-10T00:00:55;28.70;;;16.87;;
8086;SDS011;4086;54.412;9.980;2022-12-10T00:03:29;31.07;;;17.33;;
8086;SDS011;4086;54.412;9.980;2022-12-10T00:05:58;30.17;;;16.10;;
8086;SDS011;4086;54.412;9.980;2022-12-10T00:08:27;30.00;;;17.10;;
8086;SDS011;4086;54.412;9.980;2022-12-10T00:10:53;32.37;;;17.90;;
8086;SDS011;4086;54.412;9.980;2022-12-10T00:13:19;27.40;;;16.53;;
8086;SDS011;4086;54.412;9.980;2022-12-10T00:15:46;28.50;;;16.37;;
8086;SDS011;4086;54.412;9.980;2022-12-10T00:18:12;30.00;;;17.33;;
8086;SDS011;4086;54.412;9.980;2022-12-10T00:20:39;30.13;;;16.33;;
8086;SDS011;4086;54.412;9.980;2022-12-10T00:23:05;30.57;;;17.30;;
8086;SDS011;4086;54.412;9.980;2022-12-10T00:25:33;29.70;;;16.17;;
8086;SDS011;4086;54.412;9.980;2022-12-10T00:27:59;26.00;;;15.20;;
8086;SDS011;4086;54.412;9.980;2022-12-10T00:30:25;26.17;;;14.47;;
8086;SDS011;4086;54.412;9.980;2022-12-10T00:32:52;27.20;;;16.03;;
8086;SDS011;4086;54.412;9.980;2022-12-10T00:35:18;24.53;;;14.47;;
8086;SDS011;4086;54.412;9.980;2022-12-10T00:37:44;26.90;;;14.67;;
8086;SDS011;4086;54.412;9.980;2022-12-10T00:40:11;28.63;;;15.97;;
8086;SDS011;4086;54.412;9.980;2022-12-10T00:42:39;25.93;;;15.47;;
8086;SDS011;4086;54.412;9.980;2022-12-10T00:45:06;29.60;;;16.07;;
8086;SDS011;4086;54.412;9.980;2022-12-10T00:47:33;26.97;;;15.50;;
8086;SDS011;4086;54.412;9.980;2022-12-10T00:49:59;26.47;;;15.67;;
8086;SDS011;4086;54.412;9.980;2022-12-10T00:52:25;28.20;;;16.70;;
8086;SDS011;4086;54.412;9.980;2022-12-10T00:54:52;26.93;;;15.90;;
8086;SDS011;4086;54.412;9.980;2022-12-10T00:57:18;29.57;;;15.97;;
8086;SDS011;4086;54.412;9.980;2022-12-10T00:59:46;28.23;;;16.53;;
8086;SDS011;4086;54.412;9.980;2022-12-10T01:02:12;29.30;;;16.53;;
8086;SDS011;4086;54.412;9.980;2022-12-10T01:04:39;23.73;;;13.33;;
8086;SDS011;4086;54.412;9.980;2022-12-10T01:07:05;18.07;;;11.37;;
8086;SDS011;4086;54.412;9.980;2022-12-10T01:09:31;18.03;;;11.07;;
8086;SDS011;4086;54.412;9.980;2022-12-10T01:12:00;21.73;;;11.97;;
8086;SDS011;4086;54.412;9.980;2022-12-10T01:14:28;22.47;;;12.50;;
8086;SDS011;4086;54.412;9.980;2022-12-10T01:16:59;22.60;;;12.30;;
8086;SDS011;4086;54.412;9.980;2022-12-10T01:19:27;21.70;;;12.43;;
8086;SDS011;4086;54.412;9.980;2022-12-10T01:21:54;22.97;;;13.00;;
8086;SDS011;4086;54.412;9.980;2022-12-10T01:24:21;20.00;;;12.00;;
8086;SDS011;4086;54.412;9.980;2022-12-10T01:26:47;19.63;;;11.93;;
8086;SDS011;4086;54.412;9.980;2022-12-10T01:29:14;19.83;;;11.67;;
8086;SDS011;4086;54.412;9.980;2022-12-10T01:31:41;19.30;;;11.00;;
8086;SDS011;4086;54.412;9.980;2022-12-10T01:34:12;20.57;;;12.10;;
8086;SDS011;4086;54.412;9.980;2022-12-10T01:36:39;20.70;;;11.93;;
8086;SDS011;4086;54.412;9.980;2022-12-10T01:39:07;19.37;;;12.27;;
8086;SDS011;4086;54.412;9.980;2022-12-10T01:41:36;18.93;;;10.93;;
8086;SDS011;4086;54.412;9.980;2022-12-10T01:44:05;17.83;;;11.77;;
8086;SDS011;4086;54.412;9.980;2022-12-10T01:47:10;22.83;;;12.30;;
8086;SDS011;4086;54.412;9.980;2022-12-10T01:49:37;23.53;;;13.27;;
8086;SDS011;4086;54.412;9.980;2022-12-10T01:52:05;20.13;;;11.73;;
8086;SDS011;4086;54.412;9.980;2022-12-10T01:54:33;18.23;;;10.93;;
8086;SDS011;4086;54.412;9.980;2022-12-10T01:57:01;26.03;;;13.93;;
8086;SDS011;4086;54.412;9.980;2022-12-10T01:59:29;23.40;;;13.90;;
8086;SDS011;4086;54.412;9.980;2022-12-10T02:02:04;21.93;;;13.70;;
8086;SDS011;4086;54.412;9.980;2022-12-10T02:04:36;26.07;;;14.37;;
8086;SDS011;4086;54.412;9.980;2022-12-10T02:07:09;23.53;;;13.17;;
8086;SDS011;4086;54.412;9.980;2022-12-10T02:09:41;22.57;;;14.73;;
8086;SDS011;4086;54.412;9.980;2022-12-10T02:12:11;25.27;;;14.70;;
8086;SDS011;4086;54.412;9.980;2022-12-10T02:14:44;26.43;;;15.90;;
8086;SDS011;4086;54.412;9.980;2022-12-10T02:17:19;25.67;;;14.57;;
8086;SDS011;4086;54.412;9.980;2022-12-10T02:19:53;24.93;;;14.70;;
8086;SDS011;4086;54.412;9.980;2022-12-10T02:22:24;26.17;;;15.43;;
8086;SDS011;4086;54.412;9.980;2022-12-10T02:24:52;23.93;;;14.93;;
8086;SDS011;4086;54.412;9.980;2022-12-10T02:27:22;24.77;;;13.73;;
8086;SDS011;4086;54.412;9.980;2022-12-10T02:29:52;26.07;;;15.53;;
8086;SDS011;4086;54.412;9.980;2022-12-10T02:32:21;26.93;;;14.83;;
8086;SDS011;4086;54.412;9.980;2022-12-10T02:34:50;27.43;;;16.10;;
8086;SDS011;4086;54.412;9.980;2022-12-10T02:37:19;28.10;;;16.10;;
8086;SDS011;4086;54.412;9.980;2022-12-10T02:39:48;28.73;;;16.47;;
8086;SDS011;4086;54.412;9.980;2022-12-10T02:42:16;28.20;;;16.10;;
8086;SDS011;4086;54.412;9.980;2022-12-10T02:44:43;25.03;;;14.93;;
8086;SDS011;4086;54.412;9.980;2022-12-10T02:47:12;24.77;;;14.40;;
8086;SDS011;4086;54.412;9.980;2022-12-10T02:49:39;21.07;;;13.87;;
8086;SDS011;4086;54.412;9.980;2022-12-10T02:52:07;23.67;;;14.50;;
8086;SDS011;4086;54.412;9.980;2022-12-10T02:54:36;22.20;;;13.80;;
8086;SDS011;4086;54.412;9.980;2022-12-10T02:57:07;26.50;;;15.47;;
8086;SDS011;4086;54.412;9.980;2022-12-10T02:59:40;26.20;;;14.53;;
8086;SDS011;4086;54.412;9.980;2022-12-10T03:02:16;23.87;;;14.30;;
8086;SDS011;4086;54.412;9.980;2022-12-10T03:04:45;24.23;;;13.27;;
8086;SDS011;4086;54.412;9.980;2022-12-10T03:07:14;21.37;;;13.17;;
8086;SDS011;4086;54.412;9.980;2022-12-10T03:09:45;23.50;;;13.87;;
8086;SDS011;4086;54.412;9.980;2022-12-10T03:12:15;21.93;;;12.23;;
8086;SDS011;4086;54.412;9.980;2022-12-10T03:14:44;22.57;;;13.27;;
8086;SDS011;4086;54.412;9.980;2022-12-10T03:17:11;22.70;;;12.77;;
8086;SDS011;4086;54.412;9.980;2022-12-10T03:19:40;25.07;;;14.37;;
8086;SDS011;4086;54.412;9.980;2022-12-10T03:22:08;23.47;;;14.73;;
8086;SDS011;4086;54.412;9.980;2022-12-10T03:24:37;22.47;;;14.63;;
8086;SDS011;4086;54.412;9.980;2022-12-10T03:27:04;20.53;;;12.67;;
8086;SDS011;4086;54.412;9.980;2022-12-10T03:29:33;22.00;;;14.10;;
8086;SDS011;4086;54.412;9.980;2022-12-10T03:32:01;18.03;;;11.53;;
8086;SDS011;4086;54.412;9.980;2022-12-10T03:34:28;18.83;;;11.93;;
8086;SDS011;4086;54.412;9.980;2022-12-10T03:36:55;19.60;;;10.70;;
8086;SDS011;4086;54.412;9.980;2022-12-10T03:39:23;15.77;;;10.47;;
8086;SDS011;4086;54.412;9.980;2022-12-10T03:41:49;16.07;;;9.70;;
8086;SDS011;4086;54.412;9.980;2022-12-10T03:44:26;16.57;;;10.47;;
8086;SDS011;4086;54.412;9.980;2022-12-10T03:46:53;15.20;;;9.93;;
8086;SDS011;4086;54.412;9.980;2022-12-10T03:49:19;15.30;;;9.03;;
8086;SDS011;4086;54.412;9.980;2022-12-10T03:51:45;14.57;;;8.73;;
8086;SDS011;4086;54.412;9.980;2022-12-10T03:54:13;15.03;;;9.23;;
8086;SDS011;4086;54.412;9.980;2022-12-10T03:56:39;13.83;;;8.90;;
8086;SDS011;4086;54.412;9.980;2022-12-10T03:59:06;16.63;;;10.07;;
8086;SDS011;4086;54.412;9.980;2022-12-10T04:01:32;14.17;;;8.63;;
8086;SDS011;4086;54.412;9.980;2022-12-10T04:03:58;13.87;;;9.00;;
8086;SDS011;4086;54.412;9.980;2022-12-10T04:06:25;14.37;;;8.83;;
8086;SDS011;4086;54.412;9.980;2022-12-10T04:08:52;14.00;;;9.07;;
8086;SDS011;4086;54.412;9.980;2022-12-10T04:11:20;13.40;;;8.40;;
8086;SDS011;4086;54.412;9.980;2022-12-10T04:13:46;17.17;;;9.47;;
8086;SDS011;4086;54.412;9.980;2022-12-10T04:16:31;17.83;;;9.30;;
8086;SDS011;4086;54.412;9.980;2022-12-10T04:18:59;14.47;;;9.57;;
8086;SDS011;4086;54.412;9.980;2022-12-10T04:21:27;15.90;;;9.67;;
8086;SDS011;4086;54.412;9.980;2022-12-10T04:24:12;16.03;;;9.77;;
8086;SDS011;4086;54.412;9.980;2022-12-10T04:26:58;15.67;;;10.70;;
8086;SDS011;4086;54.412;9.980;2022-12-10T04:29:27;16.53;;;11.70;;
8086;SDS011;4086;54.412;9.980;2022-12-10T04:31:55;17.80;;;11.07;;
8086;SDS011;4086;54.412;9.980;2022-12-10T04:34:21;17.10;;;10.97;;
8086;SDS011;4086;54.412;9.980;2022-12-10T04:36:48;15.30;;;9.80;;
8086;SDS011;4086;54.412;9.980;2022-12-10T04:39:15;17.30;;;9.33;;
8086;SDS011;4086;54.412;9.980;2022-12-10T04:41:42;14.50;;;9.30;;
8086;SDS011;4086;54.412;9.980;2022-12-10T04:44:11;16.27;;;9.70;;
8086;SDS011;4086;54.412;9.980;2022-12-10T04:46:38;15.67;;;10.07;;
8086;SDS011;4086;54.412;9.980;2022-12-10T04:49:05;18.80;;;10.67;;
8086;SDS011;4086;54.412;9.980;2022-12-10T04:51:31;17.17;;;10.23;;
8086;SDS011;4086;54.412;9.980;2022-12-10T04:53:58;17.20;;;10.37;;
8086;SDS011;4086;54.412;9.980;2022-12-10T04:56:24;15.83;;;9.97;;
8086;SDS011;4086;54.412;9.980;2022-12-10T04:58:51;18.53;;;10.47;;
8086;SDS011;4086;54.412;9.980;2022-12-10T05:01:19;18.67;;;10.33;;
8086;SDS011;4086;54.412;9.980;2022-12-10T05:03:45;16.83;;;9.77;;
8086;SDS011;4086;54.412;9.980;2022-12-10T05:06:12;15.43;;;9.73;;
8086;SDS011;4086;54.412;9.980;2022-12-10T05:08:39;19.47;;;10.90;;
8086;SDS011;4086;54.412;9.980;2022-12-10T05:11:07;20.60;;;11.37;;
8086;SDS011;4086;54.412;9.980;2022-12-10T05:13:35;18.87;;;11.33;;
8086;SDS011;4086;54.412;9.980;2022-12-10T05:16:02;16.47;;;10.73;;
8086;SDS011;4086;54.412;9.980;2022-12-10T05:18:30;17.83;;;10.53;;
8086;SDS011;4086;54.412;9.980;2022-12-10T05:20:57;18.47;;;10.70;;
8086;SDS011;4086;54.412;9.980;2022-12-10T05:23:24;18.03;;;10.87;;
8086;SDS011;4086;54.412;9.980;2022-12-10T05:25:57;18.53;;;10.70;;
8086;SDS011;4086;54.412;9.980;2022-12-10T05:28:24;18.07;;;11.17;;
8086;SDS011;4086;54.412;9.980;2022-12-10T05:30:51;18.80;;;10.87;;
8086;SDS011;4086;54.412;9.980;2022-12-10T05:33:17;19.57;;;11.50;;
8086;SDS011;4086;54.412;9.980;2022-12-10T05:35:45;20.40;;;12.40;;
8086;SDS011;4086;54.412;9.980;2022-12-10T05:38:17;18.90;;;11.40;;
8086;SDS011;4086;54.412;9.980;2022-12-10T05:40:44;19.70;;;11.87;;
8086;SDS011;4086;54.412;9.980;2022-12-10T05:43:10;19.97;;;12.00;;
8086;SDS011;4086;54.412;9.980;2022-12-10T05:45:37;19.00;;;11.17;;
8086;SDS011;4086;54.412;9.980;2022-12-10T05:48:03;18.47;;;11.20;;
8086;SDS011;4086;54.412;9.980;2022-12-10T05:50:30;19.83;;;12.10;;
8086;SDS011;4086;54.412;9.980;2022-12-10T05:52:58;19.60;;;11.47;;
8086;SDS011;4086;54.412;9.980;2022-12-10T05:55:25;19.30;;;10.73;;
8086;SDS011;4086;54.412;9.980;2022-12-10T05:57:52;18.60;;;11.00;;
8086;SDS011;4086;54.412;9.980;2022-12-10T06:00:18;20.60;;;12.67;;
8086;SDS011;4086;54.412;9.980;2022-12-10T06:02:45;19.93;;;12.87;;
8086;SDS011;4086;54.412;9.980;2022-12-10T06:05:12;23.67;;;13.53;;
8086;SDS011;4086;54.412;9.980;2022-12-10T06:07:38;22.70;;;13.93;;
8086;SDS011;4086;54.412;9.980;2022-12-10T06:10:06;23.63;;;13.67;;
8086;SDS011;4086;54.412;9.980;2022-12-10T06:12:33;24.30;;;13.93;;
8086;SDS011;4086;54.412;9.980;2022-12-10T06:15:00;22.70;;;14.03;;
8086;SDS011;4086;54.412;9.980;2022-12-10T06:17:26;21.73;;;12.53;;
8086;SDS011;4086;54.412;9.980;2022-12-10T06:19:52;18.77;;;12.50;;
8086;SDS011;4086;54.412;9.980;2022-12-10T06:22:19;18.90;;;10.97;;
8086;SDS011;4086;54.412;9.980;2022-12-10T06:24:45;17.47;;;10.57;;
8086;SDS011;4086;54.412;9.980;2022-12-10T06:27:13;15.70;;;10.00;;
8086;SDS011;4086;54.412;9.980;2022-12-10T06:29:39;16.97;;;10.30;;
8086;SDS011;4086;54.412;9.980;2022-12-10T06:32:06;16.53;;;10.63;;
8086;SDS011;4086;54.412;9.980;2022-12-10T06:34:32;15.60;;;10.13;;
8086;SDS011;4086;54.412;9.980;2022-12-10T06:36:58;16.33;;;10.47;;
8086;SDS011;4086;54.412;9.980;2022-12-10T06:39:25;16.97;;;9.93;;
8086;SDS011;4086;54.412;9.980;2022-12-10T06:41:51;14.47;;;10.20;;
8086;SDS011;4086;54.412;9.980;2022-12-10T06:44:19;17.10;;;10.73;;
8086;SDS011;4086;54.412;9.980;2022-12-10T06:46:45;17.67;;;10.10;;
8086;SDS011;4086;54.412;9.980;2022-12-10T06:49:12;15.80;;;9.90;;
8086;SDS011;4086;54.412;9.980;2022-12-10T06:51:38;15.57;;;8.93;;
8086;SDS011;4086;54.412;9.980;2022-12-10T06:54:04;16.03;;;10.50;;
8086;SDS011;4086;54.412;9.980;2022-12-10T06:56:31;17.00;;;10.73;;
8086;SDS011;4086;54.412;9.980;2022-12-10T06:58:57;17.27;;;9.57;;
8086;SDS011;4086;54.412;9.980;2022-12-10T07:01:25;16.87;;;11.03;;
8086;SDS011;4086;54.412;9.980;2022-12-10T07:03:52;18.63;;;10.80;;
8086;SDS011;4086;54.412;9.980;2022-12-10T07:06:19;19.67;;;11.37;;
8086;SDS011;4086;54.412;9.980;2022-12-10T07:08:46;21.50;;;11.83;;
8086;SDS011;4086;54.412;9.980;2022-12-10T07:11:13;16.20;;;10.53;;
8086;SDS011;4086;54.412;9.980;2022-12-10T07:13:40;18.10;;;11.10;;
8086;SDS011;4086;54.412;9.980;2022-12-10T07:16:11;18.97;;;10.33;;
8086;SDS011;4086;54.412;9.980;2022-12-10T07:18:39;16.63;;;11.60;;
8086;SDS011;4086;54.412;9.980;2022-12-10T07:21:12;18.10;;;11.27;;
8086;SDS011;4086;54.412;9.980;2022-12-10T07:23:39;19.63;;;12.03;;
8086;SDS011;4086;54.412;9.980;2022-12-10T07:26:05;18.30;;;11.63;;
8086;SDS011;4086;54.412;9.980;2022-12-10T07:28:32;21.27;;;12.80;;
8086;SDS011;4086;54.412;9.980;2022-12-10T07:31:00;22.13;;;13.63;;
8086;SDS011;4086;54.412;9.980;2022-12-10T07:33:27;21.83;;;13.63;;
8086;SDS011;4086;54.412;9.980;2022-12-10T07:35:55;20.60;;;12.63;;
8086;SDS011;4086;54.412;9.980;2022-12-10T07:38:22;24.30;;;14.53;;
8086;SDS011;4086;54.412;9.980;2022-12-10T07:40:48;21.03;;;13.47;;
8086;SDS011;4086;54.412;9.980;2022-12-10T07:43:15;19.43;;;13.07;;
8086;SDS011;4086;54.412;9.980;2022-12-10T07:45:41;20.97;;;13.23;;
8086;SDS011;4086;54.412;9.980;2022-12-10T07:48:08;20.20;;;12.27;;
8086;SDS011;4086;54.412;9.980;2022-12-10T07:50:34;20.87;;;12.10;;
8086;SDS011;4086;54.412;9.980;2022-12-10T07:53:02;19.90;;;11.90;;
8086;SDS011;4086;54.412;9.980;2022-12-10T07:55:28;19.47;;;12.17;;
8086;SDS011;4086;54.412;9.980;2022-12-10T07:57:55;21.83;;;13.77;;
8086;SDS011;4086;54.412;9.980;2022-12-10T08:00:21;22.07;;;12.37;;
8086;SDS011;4086;54.412;9.980;2022-12-10T08:02:47;22.80;;;14.10;;
8086;SDS011;4086;54.412;9.980;2022-12-10T08:05:14;18.43;;;12.47;;
8086;SDS011;4086;54.412;9.980;2022-12-10T08:07:40;20.60;;;12.40;;
8086;SDS011;4086;54.412;9.980;2022-12-10T08:10:08;22.27;;;13.47;;
8086;SDS011;4086;54.412;9.980;2022-12-10T08:12:34;25.33;;;14.80;;
8086;SDS011;4086;54.412;9.980;2022-12-10T08:15:01;25.00;;;13.73;;
8086;SDS011;4086;54.412;9.980;2022-12-10T08:17:29;19.17;;;11.83;;
8086;SDS011;4086;54.412;9.980;2022-12-10T08:19:55;22.67;;;13.77;;
8086;SDS011;4086;54.412;9.980;2022-12-10T08:22:21;23.20;;;13.80;;
8086;SDS011;4086;54.412;9.980;2022-12-10T08:24:48;21.33;;;13.53;;
8086;SDS011;4086;54.412;9.980;2022-12-10T08:27:15;24.60;;;12.90;;
8086;SDS011;4086;54.412;9.980;2022-12-10T08:29:42;22.67;;;12.70;;
8086;SDS011;4086;54.412;9.980;2022-12-10T08:32:08;18.93;;;10.93;;
8086;SDS011;4086;54.412;9.980;2022-12-10T08:34:34;18.67;;;11.53;;
8086;SDS011;4086;54.412;9.980;2022-12-10T08:37:01;19.13;;;11.97;;
8086;SDS011;4086;54.412;9.980;2022-12-10T08:39:27;22.50;;;12.67;;
8086;SDS011;4086;54.412;9.980;2022-12-10T08:41:53;19.40;;;12.90;;
8086;SDS011;4086;54.412;9.980;2022-12-10T08:44:22;21.50;;;11.13;;
8086;SDS011;4086;54.412;9.980;2022-12-10T08:46:48;23.80;;;12.10;;
8086;SDS011;4086;54.412;9.980;2022-12-10T08:49:15;20.77;;;11.93;;
8086;SDS011;4086;54.412;9.980;2022-12-10T08:51:41;19.40;;;11.73;;
8086;SDS011;4086;54.412;9.980;2022-12-10T08:54:08;18.93;;;12.03;;
8086;SDS011;4086;54.412;9.980;2022-12-10T08:56:34;19.70;;;12.27;;
8086;SDS011;4086;54.412;9.980;2022-12-10T08:59:01;19.47;;;11.83;;
8086;SDS011;4086;54.412;9.980;2022-12-10T09:01:29;18.00;;;10.80;;
8086;SDS011;4086;54.412;9.980;2022-12-10T09:03:55;19.07;;;11.50;;
8086;SDS011;4086;54.412;9.980;2022-12-10T09:06:22;21.00;;;11.80;;
8086;SDS011;4086;54.412;9.980;2022-12-10T09:08:50;19.23;;;12.03;;
8086;SDS011;4086;54.412;9.980;2022-12-10T09:11:17;19.93;;;12.27;;
8086;SDS011;4086;54.412;9.980;2022-12-10T09:13:45;19.97;;;11.10;;
8086;SDS011;4086;54.412;9.980;2022-12-10T09:16:11;18.07;;;11.00;;
8086;SDS011;4086;54.412;9.980;2022-12-10T09:18:40;20.70;;;11.73;;
8086;SDS011;4086;54.412;9.980;2022-12-10T09:21:07;21.13;;;11.53;;
8086;SDS011;4086;54.412;9.980;2022-12-10T09:23:33;19.37;;;11.77;;
8086;SDS011;4086;54.412;9.980;2022-12-10T09:26:00;19.97;;;12.03;;
8086;SDS011;4086;54.412;9.980;2022-12-10T09:28:26;17.40;;;11.10;;
8086;SDS011;4086;54.412;9.980;2022-12-10T09:30:55;21.17;;;11.70;;
8086;SDS011;4086;54.412;9.980;2022-12-10T09:33:22;16.43;;;11.60;;
8086;SDS011;4086;54.412;9.980;2022-12-10T09:35:50;19.13;;;11.47;;
8086;SDS011;4086;54.412;9.980;2022-12-10T09:38:17;18.13;;;11.60;;
8086;SDS011;4086;54.412;9.980;2022-12-10T09:40:44;18.43;;;11.17;;
8086;SDS011;4086;54.412;9.980;2022-12-10T09:43:16;16.70;;;10.80;;
8086;SDS011;4086;54.412;9.980;2022-12-10T09:45:48;15.57;;;10.10;;
8086;SDS011;4086;54.412;9.980;2022-12-10T09:48:23;16.23;;;10.50;;
8086;SDS011;4086;54.412;9.980;2022-12-10T09:50:55;17.10;;;10.20;;
8086;SDS011;4086;54.412;9.980;2022-12-10T09:53:24;17.00;;;10.37;;
8086;SDS011;4086;54.412;9.980;2022-12-10T09:55:50;17.77;;;10.60;;
8086;SDS011;4086;54.412;9.980;2022-12-10T09:58:17;17.93;;;10.70;;
8086;SDS011;4086;54.412;9.980;2022-12-10T10:00:45;16.17;;;10.57;;
8086;SDS011;4086;54.412;9.980;2022-12-10T10:03:13;18.70;;;10.43;;
8086;SDS011;4086;54.412;9.980;2022-12-10T10:05:41;14.90;;;9.30;;
8086;SDS011;4086;54.412;9.980;2022-12-10T10:08:14;15.50;;;9.07;;
8086;SDS011;4086;54.412;9.980;2022-12-10T10:10:44;15.20;;;9.10;;
8086;SDS011;4086;54.412;9.980;2022-12-10T10:13:12;13.27;;;8.57;;
8086;SDS011;4086;54.412;9.980;2022-12-10T10:15:43;16.27;;;9.97;;
8086;SDS011;4086;54.412;9.980;2022-12-10T10:18:13;16.23;;;10.20;;
8086;SDS011;4086;54.412;9.980;2022-12-10T10:20:41;16.47;;;9.63;;
8086;SDS011;4086;54.412;9.980;2022-12-10T10:23:07;15.07;;;9.53;;
8086;SDS011;4086;54.412;9.980;2022-12-10T10:25:35;14.67;;;9.80;;
8086;SDS011;4086;54.412;9.980;2022-12-10T10:28:02;15.00;;;9.13;;
8086;SDS011;4086;54.412;9.980;2022-12-10T10:30:28;15.83;;;9.73;;
8086;SDS011;4086;54.412;9.980;2022-12-10T10:32:56;18.60;;;12.03;;
8086;SDS011;4086;54.412;9.980;2022-12-10T10:35:25;17.27;;;11.27;;
8086;SDS011;4086;54.412;9.980;2022-12-10T10:38:01;17.37;;;10.80;;
8086;SDS011;4086;54.412;9.980;2022-12-10T10:40:39;19.63;;;11.60;;
8086;SDS011;4086;54.412;9.980;2022-12-10T10:43:08;17.97;;;10.60;;
8086;SDS011;4086;54.412;9.980;2022-12-10T10:45:41;18.20;;;11.27;;
8086;SDS011;4086;54.412;9.980;2022-12-10T10:48:12;16.37;;;10.83;;
8086;SDS011;4086;54.412;9.980;2022-12-10T10:50:41;21.67;;;11.70;;
8086;SDS011;4086;54.412;9.980;2022-12-10T10:53:21;19.03;;;11.80;;
8086;SDS011;4086;54.412;9.980;2022-12-10T10:55:50;19.40;;;11.90;;
8086;SDS011;4086;54.412;9.980;2022-12-10T10:58:17;19.60;;;12.50;;
8086;SDS011;4086;54.412;9.980;2022-12-10T11:00:52;19.20;;;12.20;;
8086;SDS011;4086;54.412;9.980;2022-12-10T11:03:19;21.03;;;12.70;;
8086;SDS011;4086;54.412;9.980;2022-12-10T11:05:46;17.17;;;10.10;;
8086;SDS011;4086;54.412;9.980;2022-12-10T11:08:13;18.90;;;11.53;;
8086;SDS011;4086;54.412;9.980;2022-12-10T11:10:46;17.83;;;11.27;;
8086;SDS011;4086;54.412;9.980;2022-12-10T11:13:19;16.77;;;10.57;;
8086;SDS011;4086;54.412;9.980;2022-12-10T11:15:53;16.60;;;10.23;;
8086;SDS011;4086;54.412;9.980;2022-12-10T11:18:23;17.53;;;10.30;;
8086;SDS011;4086;54.412;9.980;2022-12-10T11:20:59;15.00;;;9.90;;
8086;SDS011;4086;54.412;9.980;2022-12-10T11:23:28;15.27;;;9.93;;
8086;SDS011;4086;54.412;9.980;2022-12-10T11:25:58;16.17;;;9.83;;
8086;SDS011;4086;54.412;9.980;2022-12-10T11:28:39;16.37;;;9.40;;
8086;SDS011;4086;54.412;9.980;2022-12-10T11:31:18;13.30;;;9.17;;
8086;SDS011;4086;54.412;9.980;2022-12-10T11:33:53;17.13;;;10.63;;
8086;SDS011;4086;54.412;9.980;2022-12-10T11:36:26;17.67;;;10.63;;
8086;SDS011;4086;54.412;9.980;2022-12-10T11:39:01;14.97;;;10.00;;
8086;SDS011;4086;54.412;9.980;2022-12-10T11:41:35;15.87;;;10.10;;
8086;SDS011;4086;54.412;9.980;2022-12-10T11:44:10;17.13;;;10.33;;
8086;SDS011;4086;54.412;9.980;2022-12-10T11:46:52;16.50;;;10.30;;
8086;SDS011;4086;54.412;9.980;2022-12-10T11:49:42;16.70;;;9.70;;
8086;SDS011;4086;54.412;9.980;2022-12-10T11:52:15;17.30;;;10.33;;
8086;SDS011;4086;54.412;9.980;2022-12-10T11:54:49;15.40;;;10.00;;
8086;SDS011;4086;54.412;9.980;2022-12-10T11:57:22;15.97;;;10.40;;
8086;SDS011;4086;54.412;9.980;2022-12-10T11:59:56;16.43;;;10.40;;
8086;SDS011;4086;54.412;9.980;2022-12-10T12:02:30;15.90;;;9.73;;
8086;SDS011;4086;54.412;9.980;2022-12-10T12:05:19;18.27;;;11.40;;
8086;SDS011;4086;54.412;9.980;2022-12-10T12:07:53;17.77;;;10.97;;
8086;SDS011;4086;54.412;9.980;2022-12-10T12:10:29;17.07;;;10.90;;
8086;SDS011;4086;54.412;9.980;2022-12-10T12:13:02;17.70;;;10.63;;
8086;SDS011;4086;54.412;9.980;2022-12-10T12:15:33;17.20;;;10.60;;
8086;SDS011;4086;54.412;9.980;2022-12-10T12:18:02;18.50;;;10.63;;
8086;SDS011;4086;54.412;9.980;2022-12-10T12:20:32;17.77;;;10.63;;
8086;SDS011;4086;54.412;9.980;2022-12-10T12:23:02;20.17;;;10.63;;
8086;SDS011;4086;54.412;9.980;2022-12-10T12:25:32;17.80;;;10.90;;
8086;SDS011;4086;54.412;9.980;2022-12-10T12:28:03;19.97;;;11.30;;
8086;SDS011;4086;54.412;9.980;2022-12-10T12:30:33;18.87;;;10.70;;
8086;SDS011;4086;54.412;9.980;2022-12-10T12:33:02;19.83;;;11.47;;
8086;SDS011;4086;54.412;9.980;2022-12-10T12:35:33;19.93;;;11.87;;
8086;SDS011;4086;54.412;9.980;2022-12-10T12:38:05;20.87;;;11.13;;
8086;SDS011;4086;54.412;9.980;2022-12-10T12:40:39;20.93;;;12.20;;
8086;SDS011;4086;54.412;9.980;2022-12-10T12:43:08;19.77;;;11.07;;
8086;SDS011;4086;54.412;9.980;2022-12-10T12:45:38;17.60;;;11.03;;
8086;SDS011;4086;54.412;9.980;2022-12-10T12:48:10;18.60;;;10.50;;
8086;SDS011;4086;54.412;9.980;2022-12-10T12:50:43;20.03;;;10.33;;
8086;SDS011;4086;54.412;9.980;2022-12-10T12:53:12;22.10;;;10.97;;
8086;SDS011;4086;54.412;9.980;2022-12-10T12:55:43;23.03;;;11.77;;
8086;SDS011;4086;54.412;9.980;2022-12-10T12:58:17;17.33;;;10.33;;
8086;SDS011;4086;54.412;9.980;2022-12-10T13:00:50;17.50;;;10.30;;
8086;SDS011;4086;54.412;9.980;2022-12-10T13:03:31;17.43;;;9.90;;
8086;SDS011;4086;54.412;9.980;2022-12-10T13:06:14;17.50;;;10.47;;
8086;SDS011;4086;54.412;9.980;2022-12-10T13:08:43;16.33;;;9.20;;
8086;SDS011;4086;54.412;9.980;2022-12-10T13:11:27;16.27;;;8.90;;
8086;SDS011;4086;54.412;9.980;2022-12-10T13:14:13;16.70;;;9.93;;
8086;SDS011;4086;54.412;9.980;2022-12-10T13:16:47;19.23;;;11.07;;
8086;SDS011;4086;54.412;9.980;2022-12-10T13:19:22;17.33;;;10.17;;
8086;SDS011;4086;54.412;9.980;2022-12-10T13:22:02;18.13;;;9.57;;
8086;SDS011;4086;54.412;9.980;2022-12-10T13:24:43;20.97;;;11.33;;
8086;SDS011;4086;54.412;9.980;2022-12-10T13:27:38;17.60;;;10.20;;
8086;SDS011;4086;54.412;9.980;2022-12-10T13:30:34;17.73;;;9.93;;
8086;SDS011;4086;54.412;9.980;2022-12-10T13:33:05;15.07;;;9.27;;
8086;SDS011;4086;54.412;9.980;2022-12-10T13:35:48;16.23;;;9.67;;
8086;SDS011;4086;54.412;9.980;2022-12-10T13:38:18;15.83;;;9.57;;
8086;SDS011;4086;54.412;9.980;2022-12-10T13:40:56;17.20;;;9.77;;
8086;SDS011;4086;54.412;9.980;2022-12-10T13:43:41;17.83;;;9.97;;
8086;SDS011;4086;54.412;9.980;2022-12-10T13:46:28;14.47;;;9.30;;
8086;SDS011;4086;54.412;9.980;2022-12-10T13:48:59;14.97;;;9.70;;
8086;SDS011;4086;54.412;9.980;2022-12-10T13:51:30;14.83;;;9.03;;
8086;SDS011;4086;54.412;9.980;2022-12-10T13:54:12;13.63;;;9.17;;
8086;SDS011;4086;54.412;9.980;2022-12-10T13:56:51;12.53;;;7.97;;
8086;SDS011;4086;54.412;9.980;2022-12-10T13:59:25;13.77;;;8.70;;
8086;SDS011;4086;54.412;9.980;2022-12-10T14:01:57;15.20;;;9.10;;
8086;SDS011;4086;54.412;9.980;2022-12-10T14:07:18;15.93;;;9.13;;
8086;SDS011;4086;54.412;9.980;2022-12-10T14:09:46;15.10;;;8.50;;
8086;SDS011;4086;54.412;9.980;2022-12-10T14:12:15;15.27;;;9.27;;
8086;SDS011;4086;54.412;9.980;2022-12-10T14:14:44;17.30;;;9.20;;
8086;SDS011;4086;54.412;9.980;2022-12-10T14:17:14;15.97;;;9.10;;
8086;SDS011;4086;54.412;9.980;2022-12-10T14:19:42;13.57;;;8.77;;
8086;SDS011;4086;54.412;9.980;2022-12-10T14:22:12;14.47;;;9.20;;
8086;SDS011;4086;54.412;9.980;2022-12-10T14:24:42;17.30;;;10.23;;
8086;SDS011;4086;54.412;9.980;2022-12-10T14:27:11;15.63;;;9.43;;
8086;SDS011;4086;54.412;9.980;2022-12-10T14:29:43;14.70;;;8.60;;
8086;SDS011;4086;54.412;9.980;2022-12-10T14:32:10;16.73;;;9.00;;
8086;SDS011;4086;54.412;9.980;2022-12-10T14:34:38;15.77;;;9.70;;
8086;SDS011;4086;54.412;9.980;2022-12-10T14:37:05;15.47;;;8.90;;
8086;SDS011;4086;54.412;9.980;2022-12-10T14:39:33;14.87;;;9.37;;
8086;SDS011;4086;54.412;9.980;2022-12-10T14:42:00;16.70;;;9.67;;
8086;SDS011;4086;54.412;9.980;2022-12-10T14:44:28;15.83;;;8.93;;
8086;SDS011;4086;54.412;9.980;2022-12-10T14:47:02;14.87;;;8.90;;
8086;SDS011;4086;54.412;9.980;2022-12-10T14:49:30;16.93;;;8.90;;
8086;SDS011;4086;54.412;9.980;2022-12-10T14:51:57;15.67;;;9.20;;
8086;SDS011;4086;54.412;9.980;2022-12-10T14:54:24;15.77;;;9.03;;
8086;SDS011;4086;54.412;9.980;2022-12-10T14:56:54;15.27;;;7.97;;
8086;SDS011;4086;54.412;9.980;2022-12-10T14:59:22;14.73;;;8.80;;
8086;SDS011;4086;54.412;9.980;2022-12-10T15:01:52;16.70;;;8.70;;
8086;SDS011;4086;54.412;9.980;2022-12-10T15:04:21;18.63;;;10.00;;
8086;SDS011;4086;54.412;9.980;2022-12-10T15:06:47;16.57;;;9.63;;